RJOH

Miho-Yonago Airport

Airport
ICAO code
RJOH
IATA Code
YGJ
Summary
ICAO Region
APAC
ICAO Territory
Location

Yonago, Tottori Prefecture

Serving
Yonago
Elevation
13 ft
Coordinates
35° 30' 2" N , 133° 14' 42" E
KCC
Metar
Observation
RJOH 031900Z 21003KT 9999 FEW060 BKN080 01/01 Q1018
Station
Miho Ab
Date/Time
2023-02-03 19:00:00
Wind direction
210°
Wind speed
03 kts
Lowest cloud amount
few clouds
Temperature
1°C
Dew point
1°C
Humidity
100%
QNH
1018 hPa
Weather condition
n/a

Miho Airbase, also known as Yonago Airport is a Japan Air Defense Force (JASDF) base located 11km northwest of Yonago in Tottori Prefecture. It is owned and operated by JASDF and shares the runway with civil activities.

Climatology

Humid Sub-tropical climate (Köppen climate classification Cfa)

Runways

Designator Length Width Surface Rops
7/25 1999 45 ASP Yes/Yes

Airport map

Aerial View

SKYbrary Partners:

Safety knowledge contributed by: